sensor_id;sensor_type;location;lat;lon;timestamp;temperature;humidity
59067;DHT22;44854;50.838;4.438;2024-02-21T00:05:43;10.40;99.90
59067;DHT22;44854;50.838;4.438;2024-02-21T00:08:09;10.40;99.90
59067;DHT22;44854;50.838;4.438;2024-02-21T00:10:34;10.40;99.90
59067;DHT22;44854;50.838;4.438;2024-02-21T00:13:01;10.40;99.90
59067;DHT22;44854;50.838;4.438;2024-02-21T00:15:27;10.60;99.90
59067;DHT22;44854;50.838;4.438;2024-02-21T00:17:53;10.60;99.90
59067;DHT22;44854;50.838;4.438;2024-02-21T00:20:19;10.60;99.90
59067;DHT22;44854;50.838;4.438;2024-02-21T00:22:45;10.50;99.90
59067;DHT22;44854;50.838;4.438;2024-02-21T00:25:13;10.50;99.90
59067;DHT22;44854;50.838;4.438;2024-02-21T00:27:39;10.50;99.90
59067;DHT22;44854;50.838;4.438;2024-02-21T00:30:05;10.50;99.90
59067;DHT22;44854;50.838;4.438;2024-02-21T00:32:31;10.50;99.90
59067;DHT22;44854;50.838;4.438;2024-02-21T00:34:59;10.50;99.90
59067;DHT22;44854;50.838;4.438;2024-02-21T00:37:25;10.60;99.90
59067;DHT22;44854;50.838;4.438;2024-02-21T00:39:50;10.50;99.90
59067;DHT22;44854;50.838;4.438;2024-02-21T00:42:16;10.50;99.90
59067;DHT22;44854;50.838;4.438;2024-02-21T00:44:42;10.60;99.90
59067;DHT22;44854;50.838;4.438;2024-02-21T00:47:08;10.70;99.90
59067;DHT22;44854;50.838;4.438;2024-02-21T00:49:34;10.60;99.90
59067;DHT22;44854;50.838;4.438;2024-02-21T00:52:00;10.70;99.90
59067;DHT22;44854;50.838;4.438;2024-02-21T00:54:26;10.70;99.90
59067;DHT22;44854;50.838;4.438;2024-02-21T00:56:51;10.70;99.90
59067;DHT22;44854;50.838;4.438;2024-02-21T00:59:18;10.70;99.90
59067;DHT22;44854;50.838;4.438;2024-02-21T01:01:43;10.70;99.90
59067;DHT22;44854;50.838;4.438;2024-02-21T01:04:09;10.80;99.90
59067;DHT22;44854;50.838;4.438;2024-02-21T01:06:35;10.80;99.90
59067;DHT22;44854;50.838;4.438;2024-02-21T01:09:01;10.80;99.90
59067;DHT22;44854;50.838;4.438;2024-02-21T01:11:26;10.70;99.90
59067;DHT22;44854;50.838;4.438;2024-02-21T01:13:53;10.80;99.90
59067;DHT22;44854;50.838;4.438;2024-02-21T01:16:18;10.80;99.90
59067;DHT22;44854;50.838;4.438;2024-02-21T01:18:44;10.80;99.90
59067;DHT22;44854;50.838;4.438;2024-02-21T01:21:10;10.80;99.90
59067;DHT22;44854;50.838;4.438;2024-02-21T01:23:36;10.90;99.90
59067;DHT22;44854;50.838;4.438;2024-02-21T01:26:03;10.80;99.90
59067;DHT22;44854;50.838;4.438;2024-02-21T01:28:29;10.80;99.90
59067;DHT22;44854;50.838;4.438;2024-02-21T01:30:56;10.80;99.90
59067;DHT22;44854;50.838;4.438;2024-02-21T01:33:22;10.80;99.90
59067;DHT22;44854;50.838;4.438;2024-02-21T01:35:48;10.70;99.90
59067;DHT22;44854;50.838;4.438;2024-02-21T01:38:15;10.70;99.90
59067;DHT22;44854;50.838;4.438;2024-02-21T01:40:41;10.60;99.90
59067;DHT22;44854;50.838;4.438;2024-02-21T01:43:17;10.40;99.90
59067;DHT22;44854;50.838;4.438;2024-02-21T01:45:48;10.40;99.90
59067;DHT22;44854;50.838;4.438;2024-02-21T01:48:16;10.40;99.90
59067;DHT22;44854;50.838;4.438;2024-02-21T01:50:43;10.40;99.90
59067;DHT22;44854;50.838;4.438;2024-02-21T01:53:09;10.40;99.90
59067;DHT22;44854;50.838;4.438;2024-02-21T01:55:35;10.40;99.90
59067;DHT22;44854;50.838;4.438;2024-02-21T01:58:01;10.40;99.90
59067;DHT22;44854;50.838;4.438;2024-02-21T02:00:27;10.40;99.90
59067;DHT22;44854;50.838;4.438;2024-02-21T02:02:54;10.40;99.90
59067;DHT22;44854;50.838;4.438;2024-02-21T02:05:21;10.50;99.90
59067;DHT22;44854;50.838;4.438;2024-02-21T02:07:47;10.50;99.90
59067;DHT22;44854;50.838;4.438;2024-02-21T02:10:13;10.60;99.90
59067;DHT22;44854;50.838;4.438;2024-02-21T02:12:39;10.50;99.90
59067;DHT22;44854;50.838;4.438;2024-02-21T02:15:05;10.40;99.90
59067;DHT22;44854;50.838;4.438;2024-02-21T02:17:31;10.40;99.90
59067;DHT22;44854;50.838;4.438;2024-02-21T02:19:56;10.40;99.90
59067;DHT22;44854;50.838;4.438;2024-02-21T02:22:25;10.30;99.90
59067;DHT22;44854;50.838;4.438;2024-02-21T02:24:53;10.30;99.90
59067;DHT22;44854;50.838;4.438;2024-02-21T02:27:19;10.30;99.90
59067;DHT22;44854;50.838;4.438;2024-02-21T02:29:44;10.30;99.90
59067;DHT22;44854;50.838;4.438;2024-02-21T02:32:11;10.40;99.90
59067;DHT22;44854;50.838;4.438;2024-02-21T02:34:36;10.40;99.90
59067;DHT22;44854;50.838;4.438;2024-02-21T02:37:04;10.40;99.90
59067;DHT22;44854;50.838;4.438;2024-02-21T02:39:29;10.40;99.90
59067;DHT22;44854;50.838;4.438;2024-02-21T02:41:55;10.40;99.90
59067;DHT22;44854;50.838;4.438;2024-02-21T02:44:20;10.40;99.90
59067;DHT22;44854;50.838;4.438;2024-02-21T02:46:46;10.40;99.90
59067;DHT22;44854;50.838;4.438;2024-02-21T02:49:12;10.60;99.90
59067;DHT22;44854;50.838;4.438;2024-02-21T02:51:41;10.60;99.90
59067;DHT22;44854;50.838;4.438;2024-02-21T02:54:07;10.50;99.90
59067;DHT22;44854;50.838;4.438;2024-02-21T02:56:33;10.40;99.90
59067;DHT22;44854;50.838;4.438;2024-02-21T02:58:59;10.50;99.90
59067;DHT22;44854;50.838;4.438;2024-02-21T03:01:25;10.50;99.90
59067;DHT22;44854;50.838;4.438;2024-02-21T03:03:50;10.60;99.90
59067;DHT22;44854;50.838;4.438;2024-02-21T03:06:16;10.50;99.90
59067;DHT22;44854;50.838;4.438;2024-02-21T03:08:41;10.60;99.90
59067;DHT22;44854;50.838;4.438;2024-02-21T03:11:08;10.60;99.90
59067;DHT22;44854;50.838;4.438;2024-02-21T03:13:34;10.60;99.90
59067;DHT22;44854;50.838;4.438;2024-02-21T03:16:00;10.70;99.90
59067;DHT22;44854;50.838;4.438;2024-02-21T03:18:26;10.70;99.90
59067;DHT22;44854;50.838;4.438;2024-02-21T03:20:51;10.70;99.90
59067;DHT22;44854;50.838;4.438;2024-02-21T03:23:17;10.80;99.90
59067;DHT22;44854;50.838;4.438;2024-02-21T03:25:42;10.70;99.90
59067;DHT22;44854;50.838;4.438;2024-02-21T03:28:08;10.80;99.90
59067;DHT22;44854;50.838;4.438;2024-02-21T03:30:34;10.70;99.90
59067;DHT22;44854;50.838;4.438;2024-02-21T03:32:59;10.80;99.90
59067;DHT22;44854;50.838;4.438;2024-02-21T03:35:26;10.70;99.90
59067;DHT22;44854;50.838;4.438;2024-02-21T03:37:53;10.70;99.90
59067;DHT22;44854;50.838;4.438;2024-02-21T03:40:19;10.70;99.90
59067;DHT22;44854;50.838;4.438;2024-02-21T03:42:44;10.70;99.90
59067;DHT22;44854;50.838;4.438;2024-02-21T03:45:10;10.60;99.90
59067;DHT22;44854;50.838;4.438;2024-02-21T03:47:37;10.60;99.90
59067;DHT22;44854;50.838;4.438;2024-02-21T03:50:04;10.60;99.90
59067;DHT22;44854;50.838;4.438;2024-02-21T03:52:30;10.60;99.90
59067;DHT22;44854;50.838;4.438;2024-02-21T03:54:56;10.60;99.90
59067;DHT22;44854;50.838;4.438;2024-02-21T03:57:21;10.60;99.90
59067;DHT22;44854;50.838;4.438;2024-02-21T03:59:50;10.60;99.90
59067;DHT22;44854;50.838;4.438;2024-02-21T04:02:16;10.50;99.90
59067;DHT22;44854;50.838;4.438;2024-02-21T04:04:43;10.60;99.90
59067;DHT22;44854;50.838;4.438;2024-02-21T04:07:12;10.60;99.90
59067;DHT22;44854;50.838;4.438;2024-02-21T04:09:37;10.70;99.90
59067;DHT22;44854;50.838;4.438;2024-02-21T04:12:05;10.50;99.90
59067;DHT22;44854;50.838;4.438;2024-02-21T04:14:30;10.50;99.90
59067;DHT22;44854;50.838;4.438;2024-02-21T04:16:56;10.40;99.90
59067;DHT22;44854;50.838;4.438;2024-02-21T04:19:22;10.50;99.90
59067;DHT22;44854;50.838;4.438;2024-02-21T04:21:48;10.50;99.90
59067;DHT22;44854;50.838;4.438;2024-02-21T04:24:13;10.40;99.90
59067;DHT22;44854;50.838;4.438;2024-02-21T04:26:39;10.40;99.90
59067;DHT22;44854;50.838;4.438;2024-02-21T04:29:06;10.40;99.90
59067;DHT22;44854;50.838;4.438;2024-02-21T04:31:34;10.50;99.90
59067;DHT22;44854;50.838;4.438;2024-02-21T04:33:59;10.50;99.90
59067;DHT22;44854;50.838;4.438;2024-02-21T04:36:25;10.40;99.90
59067;DHT22;44854;50.838;4.438;2024-02-21T04:38:51;10.30;99.90
59067;DHT22;44854;50.838;4.438;2024-02-21T04:41:16;10.40;99.90
59067;DHT22;44854;50.838;4.438;2024-02-21T04:43:42;10.30;99.90
59067;DHT22;44854;50.838;4.438;2024-02-21T04:46:08;10.30;99.90
59067;DHT22;44854;50.838;4.438;2024-02-21T04:48:33;10.40;99.90
59067;DHT22;44854;50.838;4.438;2024-02-21T04:50:59;10.40;99.90
59067;DHT22;44854;50.838;4.438;2024-02-21T04:53:24;10.40;99.90
59067;DHT22;44854;50.838;4.438;2024-02-21T04:55:50;10.40;99.90
59067;DHT22;44854;50.838;4.438;2024-02-21T04:58:16;10.40;99.90
59067;DHT22;44854;50.838;4.438;2024-02-21T05:00:41;10.50;99.90
59067;DHT22;44854;50.838;4.438;2024-02-21T05:03:07;10.60;99.90
59067;DHT22;44854;50.838;4.438;2024-02-21T05:05:33;10.50;99.90
59067;DHT22;44854;50.838;4.438;2024-02-21T05:07:58;10.60;99.90
59067;DHT22;44854;50.838;4.438;2024-02-21T05:10:24;10.70;99.90
59067;DHT22;44854;50.838;4.438;2024-02-21T05:12:49;10.60;99.90
59067;DHT22;44854;50.838;4.438;2024-02-21T05:15:15;10.60;99.90
59067;DHT22;44854;50.838;4.438;2024-02-21T05:17:41;10.40;99.90
59067;DHT22;44854;50.838;4.438;2024-02-21T05:20:08;10.40;99.90
59067;DHT22;44854;50.838;4.438;2024-02-21T05:22:35;10.50;99.90
59067;DHT22;44854;50.838;4.438;2024-02-21T05:25:01;10.40;99.90
59067;DHT22;44854;50.838;4.438;2024-02-21T05:27:27;10.50;99.90
59067;DHT22;44854;50.838;4.438;2024-02-21T05:29:53;10.50;99.90
59067;DHT22;44854;50.838;4.438;2024-02-21T05:32:21;10.40;99.90
59067;DHT22;44854;50.838;4.438;2024-02-21T05:34:49;10.50;99.90
59067;DHT22;44854;50.838;4.438;2024-02-21T05:37:15;10.60;99.90
59067;DHT22;44854;50.838;4.438;2024-02-21T05:39:41;10.50;99.90
59067;DHT22;44854;50.838;4.438;2024-02-21T05:42:06;10.50;99.90
59067;DHT22;44854;50.838;4.438;2024-02-21T05:44:32;10.50;99.90
59067;DHT22;44854;50.838;4.438;2024-02-21T05:46:58;10.60;99.90
59067;DHT22;44854;50.838;4.438;2024-02-21T05:49:24;10.70;99.90
59067;DHT22;44854;50.838;4.438;2024-02-21T05:51:49;10.60;99.90
59067;DHT22;44854;50.838;4.438;2024-02-21T05:54:15;10.60;99.90
59067;DHT22;44854;50.838;4.438;2024-02-21T05:56:45;10.50;99.90
59067;DHT22;44854;50.838;4.438;2024-02-21T05:59:11;10.50;99.90
59067;DHT22;44854;50.838;4.438;2024-02-21T06:01:36;10.50;99.90
59067;DHT22;44854;50.838;4.438;2024-02-21T06:04:02;10.60;99.90
59067;DHT22;44854;50.838;4.438;2024-02-21T06:06:28;10.60;99.90
59067;DHT22;44854;50.838;4.438;2024-02-21T06:08:53;10.60;99.90
59067;DHT22;44854;50.838;4.438;2024-02-21T06:11:20;10.60;99.90
59067;DHT22;44854;50.838;4.438;2024-02-21T06:13:46;10.60;99.90
59067;DHT22;44854;50.838;4.438;2024-02-21T06:16:12;10.60;99.90
59067;DHT22;44854;50.838;4.438;2024-02-21T06:18:38;10.50;99.90
59067;DHT22;44854;50.838;4.438;2024-02-21T06:21:04;10.60;99.90
59067;DHT22;44854;50.838;4.438;2024-02-21T06:23:30;10.60;99.90
59067;DHT22;44854;50.838;4.438;2024-02-21T06:25:55;10.60;99.90
59067;DHT22;44854;50.838;4.438;2024-02-21T06:28:21;10.60;99.90
59067;DHT22;44854;50.838;4.438;2024-02-21T06:30:47;10.40;99.90
59067;DHT22;44854;50.838;4.438;2024-02-21T06:33:12;10.40;99.90
59067;DHT22;44854;50.838;4.438;2024-02-21T06:35:38;10.60;99.90
59067;DHT22;44854;50.838;4.438;2024-02-21T06:38:06;10.70;99.90
59067;DHT22;44854;50.838;4.438;2024-02-21T06:40:33;10.90;99.90
59067;DHT22;44854;50.838;4.438;2024-02-21T06:43:04;10.70;99.90
59067;DHT22;44854;50.838;4.438;2024-02-21T06:45:30;10.70;99.90
59067;DHT22;44854;50.838;4.438;2024-02-21T06:47:56;10.60;99.90
59067;DHT22;44854;50.838;4.438;2024-02-21T06:50:21;10.70;99.90
59067;DHT22;44854;50.838;4.438;2024-02-21T06:52:47;10.80;99.90
59067;DHT22;44854;50.838;4.438;2024-02-21T06:55:14;10.90;99.90
59067;DHT22;44854;50.838;4.438;2024-02-21T06:57:39;10.90;99.90
59067;DHT22;44854;50.838;4.438;2024-02-21T07:00:06;10.90;99.90
59067;DHT22;44854;50.838;4.438;2024-02-21T07:02:33;10.90;99.90
59067;DHT22;44854;50.838;4.438;2024-02-21T07:04:59;10.80;99.90
59067;DHT22;44854;50.838;4.438;2024-02-21T07:07:27;10.90;99.90
59067;DHT22;44854;50.838;4.438;2024-02-21T07:09:55;10.70;99.90
59067;DHT22;44854;50.838;4.438;2024-02-21T07:12:21;10.60;99.90
59067;DHT22;44854;50.838;4.438;2024-02-21T07:14:46;10.60;99.90
59067;DHT22;44854;50.838;4.438;2024-02-21T07:17:12;10.50;99.90
59067;DHT22;44854;50.838;4.438;2024-02-21T07:19:38;10.50;99.90
59067;DHT22;44854;50.838;4.438;2024-02-21T07:22:03;10.40;99.90
59067;DHT22;44854;50.838;4.438;2024-02-21T07:24:29;10.60;99.90
59067;DHT22;44854;50.838;4.438;2024-02-21T07:26:57;10.70;99.90
59067;DHT22;44854;50.838;4.438;2024-02-21T07:29:23;10.70;99.90
59067;DHT22;44854;50.838;4.438;2024-02-21T07:31:48;10.90;99.90
59067;DHT22;44854;50.838;4.438;2024-02-21T07:34:14;10.80;99.90
59067;DHT22;44854;50.838;4.438;2024-02-21T07:36:40;10.80;99.90
59067;DHT22;44854;50.838;4.438;2024-02-21T07:39:08;10.70;99.90
59067;DHT22;44854;50.838;4.438;2024-02-21T07:41:34;10.60;99.90
59067;DHT22;44854;50.838;4.438;2024-02-21T07:44:00;10.70;99.90
59067;DHT22;44854;50.838;4.438;2024-02-21T07:46:26;10.80;99.90
59067;DHT22;44854;50.838;4.438;2024-02-21T07:48:52;10.70;99.90
59067;DHT22;44854;50.838;4.438;2024-02-21T07:51:17;11.00;99.90
59067;DHT22;44854;50.838;4.438;2024-02-21T07:53:44;10.80;99.90
59067;DHT22;44854;50.838;4.438;2024-02-21T07:56:14;10.80;99.90
59067;DHT22;44854;50.838;4.438;2024-02-21T07:58:41;10.80;99.90
59067;DHT22;44854;50.838;4.438;2024-02-21T08:01:07;10.90;99.90
59067;DHT22;44854;50.838;4.438;2024-02-21T08:03:33;10.70;99.90
59067;DHT22;44854;50.838;4.438;2024-02-21T08:05:59;10.60;99.90
59067;DHT22;44854;50.838;4.438;2024-02-21T08:08:25;10.70;99.90
59067;DHT22;44854;50.838;4.438;2024-02-21T08:10:51;10.60;99.90
59067;DHT22;44854;50.838;4.438;2024-02-21T08:13:17;10.70;99.90
59067;DHT22;44854;50.838;4.438;2024-02-21T08:15:43;10.70;99.90
59067;DHT22;44854;50.838;4.438;2024-02-21T08:18:08;10.70;99.90
59067;DHT22;44854;50.838;4.438;2024-02-21T08:20:34;10.60;99.90
59067;DHT22;44854;50.838;4.438;2024-02-21T08:23:00;10.80;99.90
59067;DHT22;44854;50.838;4.438;2024-02-21T08:25:26;10.70;99.90
59067;DHT22;44854;50.838;4.438;2024-02-21T08:27:59;10.80;99.90
59067;DHT22;44854;50.838;4.438;2024-02-21T08:30:25;10.90;99.90
59067;DHT22;44854;50.838;4.438;2024-02-21T08:32:51;10.80;99.90
59067;DHT22;44854;50.838;4.438;2024-02-21T08:35:17;10.70;99.90
59067;DHT22;44854;50.838;4.438;2024-02-21T08:37:47;10.60;99.90
59067;DHT22;44854;50.838;4.438;2024-02-21T08:40:13;10.70;99.90
59067;DHT22;44854;50.838;4.438;2024-02-21T08:42:43;10.80;99.90
59067;DHT22;44854;50.838;4.438;2024-02-21T08:45:09;10.70;99.90
59067;DHT22;44854;50.838;4.438;2024-02-21T08:47:35;10.50;99.90
59067;DHT22;44854;50.838;4.438;2024-02-21T08:50:02;10.80;99.90
59067;DHT22;44854;50.838;4.438;2024-02-21T08:52:28;11.00;99.90
59067;DHT22;44854;50.838;4.438;2024-02-21T08:54:53;10.80;99.90
59067;DHT22;44854;50.838;4.438;2024-02-21T08:57:19;10.80;99.90
59067;DHT22;44854;50.838;4.438;2024-02-21T08:59:45;10.70;99.90
59067;DHT22;44854;50.838;4.438;2024-02-21T09:02:13;10.70;99.90
59067;DHT22;44854;50.838;4.438;2024-02-21T09:04:38;10.80;99.90
59067;DHT22;44854;50.838;4.438;2024-02-21T09:07:04;10.60;99.90
59067;DHT22;44854;50.838;4.438;2024-02-21T09:09:30;10.70;99.90
59067;DHT22;44854;50.838;4.438;2024-02-21T09:11:55;10.80;99.90
59067;DHT22;44854;50.838;4.438;2024-02-21T09:14:21;10.70;99.90
59067;DHT22;44854;50.838;4.438;2024-02-21T09:16:49;10.90;99.90
59067;DHT22;44854;50.838;4.438;2024-02-21T09:19:14;11.10;99.90
59067;DHT22;44854;50.838;4.438;2024-02-21T09:21:40;11.00;99.90
59067;DHT22;44854;50.838;4.438;2024-02-21T09:24:06;10.90;99.90
59067;DHT22;44854;50.838;4.438;2024-02-21T09:26:32;10.90;99.90
59067;DHT22;44854;50.838;4.438;2024-02-21T09:28:57;11.10;99.90
59067;DHT22;44854;50.838;4.438;2024-02-21T09:31:23;11.10;99.90
59067;DHT22;44854;50.838;4.438;2024-02-21T09:33:49;11.20;99.90
59067;DHT22;44854;50.838;4.438;2024-02-21T09:36:15;11.10;99.90
59067;DHT22;44854;50.838;4.438;2024-02-21T09:38:40;11.20;99.90
59067;DHT22;44854;50.838;4.438;2024-02-21T09:41:17;11.20;99.90
59067;DHT22;44854;50.838;4.438;2024-02-21T09:43:45;11.40;99.90
59067;DHT22;44854;50.838;4.438;2024-02-21T09:46:17;11.60;99.90
59067;DHT22;44854;50.838;4.438;2024-02-21T09:51:12;11.70;99.90
59067;DHT22;44854;50.838;4.438;2024-02-21T09:53:39;11.70;99.90
59067;DHT22;44854;50.838;4.438;2024-02-21T09:56:08;11.70;99.90
59067;DHT22;44854;50.838;4.438;2024-02-21T09:58:34;11.80;99.90
59067;DHT22;44854;50.838;4.438;2024-02-21T10:01:00;11.90;99.90
59067;DHT22;44854;50.838;4.438;2024-02-21T10:03:26;11.80;99.90
59067;DHT22;44854;50.838;4.438;2024-02-21T10:05:52;11.90;99.90
59067;DHT22;44854;50.838;4.438;2024-02-21T10:08:18;12.00;99.90
59067;DHT22;44854;50.838;4.438;2024-02-21T10:10:45;11.90;99.90
59067;DHT22;44854;50.838;4.438;2024-02-21T10:13:25;11.70;99.90
59067;DHT22;44854;50.838;4.438;2024-02-21T10:18:31;11.90;99.90
59067;DHT22;44854;50.838;4.438;2024-02-21T10:21:05;11.80;99.90
59067;DHT22;44854;50.838;4.438;2024-02-21T10:23:48;11.80;99.90
59067;DHT22;44854;50.838;4.438;2024-02-21T10:26:15;11.90;99.90
59067;DHT22;44854;50.838;4.438;2024-02-21T10:28:41;11.90;99.90
59067;DHT22;44854;50.838;4.438;2024-02-21T10:31:11;11.90;99.90
59067;DHT22;44854;50.838;4.438;2024-02-21T10:34:02;12.10;99.90
59067;DHT22;44854;50.838;4.438;2024-02-21T10:36:29;12.20;99.90
59067;DHT22;44854;50.838;4.438;2024-02-21T10:38:55;12.20;99.90
59067;DHT22;44854;50.838;4.438;2024-02-21T10:41:23;12.30;99.90
59067;DHT22;44854;50.838;4.438;2024-02-21T10:43:54;12.10;99.90
59067;DHT22;44854;50.838;4.438;2024-02-21T10:46:22;12.30;99.90
59067;DHT22;44854;50.838;4.438;2024-02-21T10:51:29;12.20;99.90
59067;DHT22;44854;50.838;4.438;2024-02-21T10:56:50;12.10;99.90
59067;DHT22;44854;50.838;4.438;2024-02-21T10:59:17;12.10;99.90
59067;DHT22;44854;50.838;4.438;2024-02-21T11:01:43;12.20;99.90
59067;DHT22;44854;50.838;4.438;2024-02-21T11:04:10;12.30;99.90
59067;DHT22;44854;50.838;4.438;2024-02-21T11:06:37;12.30;99.90
59067;DHT22;44854;50.838;4.438;2024-02-21T11:09:08;12.30;99.90
59067;DHT22;44854;50.838;4.438;2024-02-21T11:11:35;12.30;99.90
59067;DHT22;44854;50.838;4.438;2024-02-21T11:14:20;12.30;99.90
59067;DHT22;44854;50.838;4.438;2024-02-21T11:16:46;12.30;99.90
59067;DHT22;44854;50.838;4.438;2024-02-21T11:19:22;12.30;99.90
59067;DHT22;44854;50.838;4.438;2024-02-21T11:21:49;12.20;99.90
59067;DHT22;44854;50.838;4.438;2024-02-21T11:26:54;12.20;99.90
59067;DHT22;44854;50.838;4.438;2024-02-21T11:29:26;11.90;99.90
59067;DHT22;44854;50.838;4.438;2024-02-21T11:31:52;11.90;99.90
59067;DHT22;44854;50.838;4.438;2024-02-21T11:34:19;12.00;99.90
59067;DHT22;44854;50.838;4.438;2024-02-21T11:36:52;11.80;99.90
59067;DHT22;44854;50.838;4.438;2024-02-21T11:39:24;12.00;99.90
59067;DHT22;44854;50.838;4.438;2024-02-21T11:42:19;12.10;99.90
59067;DHT22;44854;50.838;4.438;2024-02-21T11:44:45;12.10;99.90
59067;DHT22;44854;50.838;4.438;2024-02-21T11:47:11;12.00;99.90
59067;DHT22;44854;50.838;4.438;2024-02-21T11:49:43;12.10;99.90
59067;DHT22;44854;50.838;4.438;2024-02-21T11:52:10;12.10;99.90
59067;DHT22;44854;50.838;4.438;2024-02-21T11:54:36;11.90;99.90
59067;DHT22;44854;50.838;4.438;2024-02-21T11:57:02;12.00;99.90
59067;DHT22;44854;50.838;4.438;2024-02-21T11:59:33;11.90;99.90
59067;DHT22;44854;50.838;4.438;2024-02-21T12:02:00;11.90;99.90
59067;DHT22;44854;50.838;4.438;2024-02-21T12:04:26;11.80;99.90
59067;DHT22;44854;50.838;4.438;2024-02-21T12:06:56;11.70;99.90
59067;DHT22;44854;50.838;4.438;2024-02-21T12:09:23;11.70;99.90
59067;DHT22;44854;50.838;4.438;2024-02-21T12:12:00;11.70;99.90
59067;DHT22;44854;50.838;4.438;2024-02-21T12:16:53;11.50;99.90
59067;DHT22;44854;50.838;4.438;2024-02-21T12:19:20;11.60;99.90
59067;DHT22;44854;50.838;4.438;2024-02-21T12:21:48;11.80;99.90
59067;DHT22;44854;50.838;4.438;2024-02-21T12:24:22;11.90;99.90
59067;DHT22;44854;50.838;4.438;2024-02-21T12:26:51;11.90;99.90
59067;DHT22;44854;50.838;4.438;2024-02-21T12:29:18;12.00;99.90
59067;DHT22;44854;50.838;4.438;2024-02-21T12:31:45;11.80;99.90
59067;DHT22;44854;50.838;4.438;2024-02-21T12:34:11;11.80;99.90
59067;DHT22;44854;50.838;4.438;2024-02-21T12:36:41;11.80;99.90
59067;DHT22;44854;50.838;4.438;2024-02-21T12:39:08;11.70;99.90
59067;DHT22;44854;50.838;4.438;2024-02-21T12:41:35;11.80;99.90
59067;DHT22;44854;50.838;4.438;2024-02-21T12:44:04;12.00;99.90
59067;DHT22;44854;50.838;4.438;2024-02-21T12:46:35;12.10;99.90
59067;DHT22;44854;50.838;4.438;2024-02-21T12:49:03;12.20;99.90
59067;DHT22;44854;50.838;4.438;2024-02-21T12:51:31;12.20;99.90
59067;DHT22;44854;50.838;4.438;2024-02-21T12:53:57;12.00;99.90
59067;DHT22;44854;50.838;4.438;2024-02-21T12:56:23;12.00;99.90
59067;DHT22;44854;50.838;4.438;2024-02-21T12:58:50;12.10;99.90
59067;DHT22;44854;50.838;4.438;2024-02-21T13:01:16;12.10;99.90
59067;DHT22;44854;50.838;4.438;2024-02-21T13:03:42;12.20;99.90
59067;DHT22;44854;50.838;4.438;2024-02-21T13:06:07;12.50;99.90
59067;DHT22;44854;50.838;4.438;2024-02-21T13:08:39;12.30;99.90
59067;DHT22;44854;50.838;4.438;2024-02-21T13:11:05;12.10;99.90
59067;DHT22;44854;50.838;4.438;2024-02-21T13:13:31;12.10;99.90
59067;DHT22;44854;50.838;4.438;2024-02-21T13:16:00;12.20;99.90
59067;DHT22;44854;50.838;4.438;2024-02-21T13:18:26;12.20;99.90
59067;DHT22;44854;50.838;4.438;2024-02-21T13:20:51;12.10;99.90
59067;DHT22;44854;50.838;4.438;2024-02-21T13:23:17;12.00;99.90
59067;DHT22;44854;50.838;4.438;2024-02-21T13:25:43;11.90;99.90
59067;DHT22;44854;50.838;4.438;2024-02-21T13:28:10;11.80;99.90
59067;DHT22;44854;50.838;4.438;2024-02-21T13:30:38;11.90;99.90
59067;DHT22;44854;50.838;4.438;2024-02-21T13:33:06;12.10;99.90
59067;DHT22;44854;50.838;4.438;2024-02-21T13:35:32;12.00;99.90
59067;DHT22;44854;50.838;4.438;2024-02-21T13:37:58;12.00;99.90
59067;DHT22;44854;50.838;4.438;2024-02-21T13:40:25;12.00;99.90
59067;DHT22;44854;50.838;4.438;2024-02-21T13:42:51;11.80;99.90
59067;DHT22;44854;50.838;4.438;2024-02-21T13:45:17;11.90;99.90
59067;DHT22;44854;50.838;4.438;2024-02-21T13:47:42;12.00;99.90
59067;DHT22;44854;50.838;4.438;2024-02-21T13:50:08;12.10;99.90
59067;DHT22;44854;50.838;4.438;2024-02-21T13:52:37;12.10;99.90
59067;DHT22;44854;50.838;4.438;2024-02-21T13:55:03;12.10;99.90
59067;DHT22;44854;50.838;4.438;2024-02-21T13:57:29;12.10;99.90
59067;DHT22;44854;50.838;4.438;2024-02-21T13:59:55;12.00;99.90
59067;DHT22;44854;50.838;4.438;2024-02-21T14:02:20;12.10;99.90
59067;DHT22;44854;50.838;4.438;2024-02-21T14:04:47;12.10;99.90
59067;DHT22;44854;50.838;4.438;2024-02-21T14:07:13;12.00;99.90
59067;DHT22;44854;50.838;4.438;2024-02-21T14:09:38;12.00;99.90
59067;DHT22;44854;50.838;4.438;2024-02-21T14:12:04;12.10;99.90
59067;DHT22;44854;50.838;4.438;2024-02-21T14:14:36;12.10;99.90
59067;DHT22;44854;50.838;4.438;2024-02-21T14:17:03;12.10;99.90
59067;DHT22;44854;50.838;4.438;2024-02-21T14:19:29;12.10;99.90
59067;DHT22;44854;50.838;4.438;2024-02-21T14:21:55;12.10;99.90
59067;DHT22;44854;50.838;4.438;2024-02-21T14:24:22;11.90;99.90
59067;DHT22;44854;50.838;4.438;2024-02-21T14:26:48;11.90;99.90
59067;DHT22;44854;50.838;4.438;2024-02-21T14:29:14;12.00;99.90
59067;DHT22;44854;50.838;4.438;2024-02-21T14:31:40;12.00;99.90
59067;DHT22;44854;50.838;4.438;2024-02-21T14:34:05;11.80;99.90
59067;DHT22;44854;50.838;4.438;2024-02-21T14:36:33;11.80;99.90
59067;DHT22;44854;50.838;4.438;2024-02-21T14:38:59;11.70;99.90
59067;DHT22;44854;50.838;4.438;2024-02-21T14:41:24;11.60;99.90
59067;DHT22;44854;50.838;4.438;2024-02-21T14:43:50;11.40;99.90
59067;DHT22;44854;50.838;4.438;2024-02-21T14:46:17;11.50;99.90
59067;DHT22;44854;50.838;4.438;2024-02-21T14:48:43;11.50;99.90
59067;DHT22;44854;50.838;4.438;2024-02-21T14:51:11;11.50;99.90
59067;DHT22;44854;50.838;4.438;2024-02-21T14:53:37;11.40;99.90
59067;DHT22;44854;50.838;4.438;2024-02-21T14:56:03;11.40;99.90
59067;DHT22;44854;50.838;4.438;2024-02-21T14:58:29;11.30;99.90
59067;DHT22;44854;50.838;4.438;2024-02-21T15:00:56;11.30;99.90
59067;DHT22;44854;50.838;4.438;2024-02-21T15:03:22;11.30;99.90
59067;DHT22;44854;50.838;4.438;2024-02-21T15:05:48;11.40;99.90
59067;DHT22;44854;50.838;4.438;2024-02-21T15:08:15;11.30;99.90
59067;DHT22;44854;50.838;4.438;2024-02-21T15:10:42;11.30;99.90
59067;DHT22;44854;50.838;4.438;2024-02-21T15:13:08;11.20;99.90
59067;DHT22;44854;50.838;4.438;2024-02-21T15:15:36;11.30;99.90
59067;DHT22;44854;50.838;4.438;2024-02-21T15:18:02;11.30;99.90
59067;DHT22;44854;50.838;4.438;2024-02-21T15:20:28;11.30;99.90
59067;DHT22;44854;50.838;4.438;2024-02-21T15:22:54;11.20;99.90
59067;DHT22;44854;50.838;4.438;2024-02-21T15:25:20;11.10;99.90
59067;DHT22;44854;50.838;4.438;2024-02-21T15:27:46;11.10;99.90
59067;DHT22;44854;50.838;4.438;2024-02-21T15:30:12;11.20;99.90
59067;DHT22;44854;50.838;4.438;2024-02-21T15:32:38;11.10;99.90
59067;DHT22;44854;50.838;4.438;2024-02-21T15:35:05;11.00;99.90
59067;DHT22;44854;50.838;4.438;2024-02-21T15:37:32;11.00;99.90
59067;DHT22;44854;50.838;4.438;2024-02-21T15:39:58;11.00;99.90
59067;DHT22;44854;50.838;4.438;2024-02-21T15:42:24;11.10;99.90
59067;DHT22;44854;50.838;4.438;2024-02-21T15:44:50;11.10;99.90
59067;DHT22;44854;50.838;4.438;2024-02-21T15:47:15;11.10;99.90